createdAt,value
2022-09-08T00:03:28.349Z,90
2022-09-08T00:08:28.562Z,90
2022-09-08T00:13:33.607Z,90
2022-09-08T00:18:28.297Z,90
2022-09-08T00:23:28.429Z,90
2022-09-08T00:28:28.515Z,90
2022-09-08T00:33:28.764Z,90
2022-09-08T00:38:28.819Z,90
2022-09-08T00:43:28.947Z,90
2022-09-08T00:48:29.054Z,90
2022-09-08T00:53:28.510Z,90
2022-09-08T00:58:28.655Z,90
2022-09-08T01:03:28.798Z,90
2022-09-08T01:08:28.937Z,90
2022-09-08T01:13:29.161Z,90
2022-09-08T01:18:28.378Z,90
2022-09-08T01:23:28.518Z,90
2022-09-08T01:28:28.632Z,90
2022-09-08T01:33:28.775Z,90
2022-09-08T01:38:28.899Z,90
2022-09-08T01:43:29.287Z,90
2022-09-08T01:48:28.480Z,90
2022-09-08T01:53:29.126Z,90
2022-09-08T01:58:28.775Z,90
2022-09-08T02:03:29.069Z,90
2022-09-08T02:08:29.264Z,90
2022-09-08T02:13:28.750Z,90
2022-09-08T02:18:28.843Z,90
2022-09-08T02:23:28.675Z,90
2022-09-08T02:28:28.855Z,90
2022-09-08T02:33:28.443Z,90
2022-09-08T02:38:28.814Z,90
2022-09-08T02:43:29.035Z,90
2022-09-08T02:48:28.351Z,90
2022-09-08T02:53:28.977Z,90
2022-09-08T02:58:28.892Z,90
2022-09-08T03:03:28.892Z,90
2022-09-08T03:08:29.230Z,90
2022-09-08T03:13:29.012Z,90
2022-09-08T03:18:28.513Z,90
2022-09-08T03:23:29.347Z,90
2022-09-08T03:28:28.867Z,90
2022-09-08T03:33:28.902Z,90
2022-09-08T03:38:28.361Z,90
2022-09-08T03:43:28.840Z,90
2022-09-08T03:48:28.417Z,90
2022-09-08T03:53:28.770Z,90
2022-09-08T03:58:29.048Z,90
2022-09-08T04:03:28.826Z,90
2022-09-08T04:08:28.946Z,90
2022-09-08T04:13:28.739Z,90
2022-09-08T04:18:28.918Z,90
2022-09-08T04:23:28.706Z,90
2022-09-08T04:28:28.908Z,90
2022-09-08T04:33:28.660Z,90
2022-09-08T04:38:28.782Z,90
2022-09-08T04:43:28.985Z,90
2022-09-08T04:48:29.372Z,90
2022-09-08T04:53:28.571Z,90
2022-09-08T04:58:29.017Z,90
2022-09-08T05:03:29.237Z,90
2022-09-08T05:08:28.984Z,90
2022-09-08T05:13:28.546Z,90
2022-09-08T05:18:28.687Z,90
2022-09-08T05:23:28.949Z,90
2022-09-08T05:28:28.620Z,90
2022-09-08T05:33:29.051Z,90
2022-09-08T05:38:29.347Z,90
2022-09-08T05:43:28.502Z,90
2022-09-08T05:48:28.623Z,90
2022-09-08T05:53:28.789Z,90
2022-09-08T05:58:29.167Z,90
2022-09-08T06:03:28.946Z,90
2022-09-08T06:08:29.339Z,135
2022-09-08T06:13:28.859Z,135
2022-09-08T06:18:29.056Z,135
2022-09-08T06:23:29.216Z,135
2022-09-08T06:28:29.340Z,135
2022-09-08T06:33:28.572Z,135
2022-09-08T06:38:29.104Z,135
2022-09-08T06:43:29.322Z,135
2022-09-08T06:48:28.673Z,135
2022-09-08T06:53:28.991Z,135
2022-09-08T06:58:29.060Z,112
2022-09-08T07:03:37.006Z,112
2022-09-08T07:08:29.019Z,135
2022-09-08T07:13:29.523Z,135
2022-09-08T07:18:28.925Z,180
2022-09-08T07:23:29.397Z,180
2022-09-08T07:28:28.532Z,112
2022-09-08T07:33:29.136Z,112
2022-09-08T07:38:29.337Z,135
2022-09-08T07:43:28.557Z,135
2022-09-08T07:48:28.602Z,112
2022-09-08T07:53:28.901Z,112
2022-09-08T07:58:29.152Z,112
2022-09-08T08:03:30.154Z,112
2022-09-08T08:08:29.437Z,112
2022-09-08T08:13:29.001Z,112
2022-09-08T08:18:29.259Z,135
2022-09-08T08:23:29.349Z,135
2022-09-08T08:28:28.629Z,135
2022-09-08T08:33:28.910Z,135
2022-09-08T08:38:29.492Z,112
2022-09-08T08:43:28.786Z,112
2022-09-08T08:48:29.237Z,158
2022-09-08T08:54:01.155Z,158
2022-09-08T08:58:40.862Z,158
2022-09-08T09:03:28.971Z,158
2022-09-08T09:08:29.656Z,135
2022-09-08T09:13:28.757Z,135
2022-09-08T09:18:29.245Z,112
2022-09-08T09:23:28.493Z,112
2022-09-08T09:28:28.671Z,112
2022-09-08T09:33:29.381Z,112
2022-09-08T09:38:29.065Z,135
2022-09-08T09:43:29.194Z,135
2022-09-08T09:48:28.847Z,135
2022-09-08T09:53:35.565Z,135
2022-09-08T09:58:28.966Z,112
2022-09-08T10:03:29.784Z,112
2022-09-08T10:08:29.124Z,135
2022-09-08T10:13:29.259Z,135
2022-09-08T10:18:29.573Z,112
2022-09-08T10:23:28.661Z,112
2022-09-08T10:28:29.016Z,135
2022-09-08T10:33:29.234Z,135
2022-09-08T10:38:29.627Z,112
2022-09-08T10:43:28.790Z,112
2022-09-08T10:48:29.258Z,112
2022-09-08T10:53:35.301Z,112
2022-09-08T10:58:28.852Z,180
2022-09-08T11:03:29.164Z,180
2022-09-08T11:08:29.427Z,135
2022-09-08T11:13:29.252Z,135
2022-09-08T11:18:29.471Z,158
2022-09-08T11:23:28.710Z,158
2022-09-08T11:28:28.966Z,158
2022-09-08T11:33:28.747Z,158
2022-09-08T11:38:28.988Z,158
2022-09-08T11:43:29.214Z,158
2022-09-08T11:48:29.475Z,158
2022-09-08T11:58:29.065Z,158
2022-09-08T12:03:29.778Z,158
2022-09-08T12:08:30.149Z,158
2022-09-08T12:13:28.672Z,158
2022-09-08T12:18:29.106Z,158
2022-09-08T12:23:29.233Z,158
2022-09-08T12:28:29.525Z,135
2022-09-08T12:33:28.931Z,135
2022-09-08T12:38:29.095Z,112
2022-09-08T12:43:29.326Z,112
2022-09-08T12:48:29.376Z,112
2022-09-08T12:53:29.649Z,112
2022-09-08T12:58:28.940Z,45
2022-09-08T13:03:28.961Z,45
2022-09-08T13:08:29.120Z,90
2022-09-08T13:13:29.354Z,90
2022-09-08T13:18:29.941Z,90
2022-09-08T13:23:29.045Z,90
2022-09-08T13:28:29.247Z,90
2022-09-08T13:33:29.459Z,90
2022-09-08T13:38:28.987Z,90
2022-09-08T13:43:29.132Z,90
2022-09-08T13:48:29.473Z,158
2022-09-08T13:53:28.755Z,158
2022-09-08T13:58:28.869Z,135
2022-09-08T14:03:29.103Z,135
2022-09-08T14:08:29.626Z,135
2022-09-08T14:13:28.934Z,135
2022-09-08T14:18:30.220Z,135
2022-09-08T14:23:29.419Z,135
2022-09-08T14:28:29.685Z,135
2022-09-08T14:33:29.061Z,135
2022-09-08T14:38:29.350Z,135
2022-09-08T14:43:29.585Z,135
2022-09-08T14:48:29.003Z,135
2022-09-08T14:53:31.175Z,135
2022-09-08T14:58:28.721Z,135
2022-09-08T15:03:29.578Z,135
2022-09-08T15:08:29.177Z,112
2022-09-08T15:13:29.146Z,112
2022-09-08T15:18:29.712Z,112
2022-09-08T15:23:28.868Z,112
2022-09-08T15:28:29.572Z,112
2022-09-08T15:33:29.198Z,112
2022-09-08T15:38:28.809Z,112
2022-09-08T15:43:29.080Z,112
2022-09-08T15:48:28.813Z,112
2022-09-08T15:53:29.373Z,112
2022-09-08T15:58:29.651Z,112
2022-09-08T16:03:31.420Z,112
2022-09-08T16:08:29.851Z,112
2022-09-08T16:13:29.198Z,112
2022-09-08T16:18:29.758Z,112
2022-09-08T16:23:29.042Z,112
2022-09-08T16:28:29.170Z,112
2022-09-08T16:33:29.683Z,112
2022-09-08T16:38:32.782Z,112
2022-09-08T16:43:29.011Z,112
2022-09-08T16:48:29.344Z,112
2022-09-08T16:53:29.527Z,112
2022-09-08T16:58:29.582Z,112
2022-09-08T17:03:29.660Z,112
2022-09-08T17:08:29.100Z,112
2022-09-08T17:13:29.231Z,112
2022-09-08T17:18:29.528Z,112
2022-09-08T17:23:29.647Z,112
2022-09-08T17:28:28.948Z,112
2022-09-08T17:33:29.321Z,112
2022-09-08T17:38:29.523Z,112
2022-09-08T17:43:29.734Z,112
2022-09-08T17:48:28.938Z,112
2022-09-08T17:53:29.342Z,112
2022-09-08T17:58:29.594Z,112
2022-09-08T18:03:29.739Z,112
2022-09-08T18:08:28.995Z,112
2022-09-08T18:13:29.494Z,112
2022-09-08T18:18:29.606Z,112
2022-09-08T18:23:32.858Z,112
2022-09-08T18:28:28.998Z,112
2022-09-08T18:33:29.128Z,112
2022-09-08T18:38:29.235Z,112
2022-09-08T18:43:29.490Z,112
2022-09-08T18:48:29.802Z,112
2022-09-08T18:53:29.029Z,112
2022-09-08T18:58:29.247Z,248
2022-09-08T19:03:29.547Z,248
2022-09-08T19:08:29.798Z,248
2022-09-08T19:13:29.064Z,248
2022-09-08T19:18:29.289Z,225
2022-09-08T19:23:29.724Z,225
2022-09-08T19:28:29.427Z,248
2022-09-08T19:33:29.627Z,248
2022-09-08T19:38:30.984Z,248
2022-09-08T19:43:29.144Z,248
2022-09-08T19:48:29.571Z,248
2022-09-08T19:53:37.112Z,248
2022-09-08T19:58:29.459Z,248
2022-09-08T20:03:29.804Z,248
2022-09-08T20:08:29.066Z,248
2022-09-08T20:13:30.371Z,248
2022-09-08T20:18:31.823Z,248
2022-09-08T20:23:28.997Z,248
2022-09-08T20:28:29.329Z,248
2022-09-08T20:33:29.635Z,248
2022-09-08T20:38:29.877Z,248
2022-09-08T20:43:29.365Z,248
2022-09-08T20:48:29.602Z,248
2022-09-08T20:53:29.718Z,248
2022-09-08T20:58:29.611Z,248
2022-09-08T21:03:35.537Z,248
2022-09-08T21:08:30.001Z,248
2022-09-08T21:13:32.211Z,248
2022-09-08T21:18:29.552Z,248
2022-09-08T21:23:29.174Z,248
2022-09-08T21:28:29.462Z,248
2022-09-08T21:33:29.716Z,248
2022-09-08T21:38:29.344Z,248
2022-09-08T21:43:29.571Z,248
2022-09-08T21:48:29.219Z,248
2022-09-08T21:53:29.441Z,248
2022-09-08T21:58:30.027Z,248
2022-09-08T22:03:29.457Z,248
2022-09-08T22:08:29.697Z,225
2022-09-08T22:13:29.883Z,225
2022-09-08T22:18:29.209Z,225
2022-09-08T22:23:29.706Z,225
2022-09-08T22:28:29.816Z,225
2022-09-08T22:33:29.299Z,225
2022-09-08T22:38:29.851Z,270
2022-09-08T22:43:29.165Z,270
2022-09-08T22:48:29.322Z,225
2022-09-08T22:53:29.730Z,225
2022-09-08T22:58:29.825Z,135
2022-09-08T23:03:29.311Z,135
2022-09-08T23:08:29.484Z,225
2022-09-08T23:13:28.970Z,225
2022-09-08T23:18:29.407Z,90
2022-09-08T23:23:29.912Z,90
2022-09-08T23:28:29.989Z,202
2022-09-08T23:33:29.345Z,202
2022-09-08T23:38:29.857Z,90
2022-09-08T23:43:28.962Z,90
2022-09-08T23:48:29.388Z,248
2022-09-08T23:53:29.414Z,248
2022-09-08T23:58:29.626Z,248
